• Join FlightAware (Why Join?)
  • Login
  • US Flag 
06:48PM EDT


 

Airport Tracker/Info


-or-


 

Live Flight TrackerFlight Track Log ✈ AAL1805 ✈ 24-Aug-2013 ✈ KMIA - TNCA / AUA

Flight Track Log - Related Links

Times and Time Zones

All times are in EDT time to prevent confusion due to time zone crossing. See the AAL1805 flight status page for this flight to view local times or setup timezone preferences in your user account.

Time Position Orientation Groundspeed Altitude Reporting Facility
EDT Latitude Longitude Course Direction KTS MPH feet Rate Location/Type
06:32PM 25.7964 -80.2653 181° South 164 189 900  Level Miami Center
06:33PM 25.7847 -80.2281 109° East 188 216 2,000 1,800 Climbing Miami Center
06:34PM 25.5109 -80.0443 153° Southeast  Level Estimated
06:34PM 25.7550 -80.1578 115° Southeast 263 303 4,000  Level Miami Center
06:35PM 25.4160 -79.9626 146° Southeast  Level Estimated
06:35PM 25.7228 -80.0972 121° Southeast 276 318 6,300  Level Miami Center
06:36PM 25.3210 -79.8811 150° Southeast  Level Estimated
06:36PM 25.6397 -80.0742 166° South 258 297 9,000  Level Miami Center
06:37PM 25.2008 -79.8827 181° South  Level FlightAware Approximate
06:37PM 25.5567 -80.0511 166° South 275 316 10,800  Level Miami Center
06:38PM 25.4611 -80.0281 168° South 317 365 13,100 2,160 Climbing Miami Center
06:39PM 25.3614 -80.0025 167° South 354 407 15,200 2,220 Climbing Miami Center
06:40PM 25.2597 -79.9631 161° South 374 430 17,600 2,100 Climbing Miami Center
06:41PM 25.1692 -79.8964 146° Southeast 386 444 19,500 1,860 Climbing Miami Center
06:42PM 25.0725 -79.8275 147° Southeast 396 456 21,400 1,800 Climbing Miami Center
06:43PM 24.9714 -79.7564 147° Southeast 409 471 23,200 1,560 Climbing Miami Center
06:44PM 24.8706 -79.6831 147° Southeast 422 486 24,600 1,440 Climbing Miami Center
06:45PM 24.7653 -79.6072 147° Southeast 442 509 26,100 1,500 Climbing Miami Center
06:46PM 24.6539 -79.5317 148° Southeast 454 522 27,600 1,320 Climbing Miami Center
06:47PM 24.5508 -79.4542 146° Southeast 459 528 28,800 1,140 Climbing Miami Center
06:48PM 24.4372 -79.3742 147° Southeast 465 535 29,900 1,320 Climbing Miami Center
06:49PM 24.3217 -79.2989 149° Southeast 475 547 31,500 1,440 Climbing Miami Center
06:50PM 24.2119 -79.2217 147° Southeast 475 547 32,800 720 Climbing Miami Center
06:51PM 24.0983 -79.1419 147° Southeast 470 541 33,000 60 Climbing Miami Center
06:52PM 23.9908 -79.0650 147° Southeast 470 541 33,000  Level Miami Center
06:54PM 23.8166 -78.9069 142° Southeast  Level FlightAware Approximate
07:01PM 23.1544 -78.3410 142° Southeast  Level FlightAware Approximate
07:02PM 23.0596 -78.2606 142° Southeast  Level FlightAware Approximate
07:03PM 22.9648 -78.1804 142° Southeast  Level FlightAware Approximate
07:04PM 22.8700 -78.1002 142° Southeast  Level FlightAware Approximate
07:05PM 22.7751 -78.0201 142° Southeast  Level FlightAware Approximate
07:06PM 22.6801 -77.9402 142° Southeast  Level FlightAware Approximate
07:07PM 22.5852 -77.8604 142° Southeast  Level FlightAware Approximate
07:08PM 22.4902 -77.7807 142° Southeast  Level FlightAware Approximate
07:09PM 22.3951 -77.7011 142° Southeast  Level FlightAware Approximate
07:10PM 22.3000 -77.6216 142° Southeast  Level FlightAware Approximate
07:11PM 22.2049 -77.5422 142° Southeast  Level FlightAware Approximate
07:12PM 22.1097 -77.4629 142° Southeast  Level FlightAware Approximate
07:13PM 22.0145 -77.3838 142° Southeast  Level FlightAware Approximate
07:14PM 21.9193 -77.3047 142° Southeast  Level FlightAware Approximate
07:15PM 21.8240 -77.2257 142° Southeast  Level FlightAware Approximate
07:16PM 21.7286 -77.1469 142° Southeast  Level FlightAware Approximate
07:17PM 21.6333 -77.0681 142° Southeast  Level FlightAware Approximate
07:18PM 21.5379 -76.9895 143° Southeast  Level FlightAware Approximate
07:19PM 21.4425 -76.9110 143° Southeast  Level FlightAware Approximate
07:20PM 21.3470 -76.8325 143° Southeast  Level FlightAware Approximate
07:21PM 21.2515 -76.7542 143° Southeast  Level FlightAware Approximate
07:22PM 21.1560 -76.6760 143° Southeast  Level FlightAware Approximate
07:23PM 21.0604 -76.5978 143° Southeast  Level FlightAware Approximate
07:24PM 20.9648 -76.5198 143° Southeast  Level FlightAware Approximate
07:25PM 20.8691 -76.4419 143° Southeast  Level FlightAware Approximate
07:26PM 20.7734 -76.3640 143° Southeast  Level FlightAware Approximate
07:27PM 20.6777 -76.2863 143° Southeast  Level FlightAware Approximate
07:28PM 20.5820 -76.2087 143° Southeast  Level FlightAware Approximate
07:29PM 20.4862 -76.1311 143° Southeast  Level FlightAware Approximate
07:30PM 20.3904 -76.0537 143° Southeast  Level FlightAware Approximate
07:31PM 20.2945 -75.9763 143° Southeast  Level FlightAware Approximate
07:32PM 20.1986 -75.8991 143° Southeast  Level FlightAware Approximate
07:33PM 20.1027 -75.8219 143° Southeast  Level FlightAware Approximate
07:34PM 20.0067 -75.7449 143° Southeast  Level FlightAware Approximate
07:35PM 19.9107 -75.6679 143° Southeast  Level FlightAware Approximate
07:36PM 19.8147 -75.5910 143° Southeast  Level FlightAware Approximate
07:37PM 19.7187 -75.5143 143° Southeast  Level FlightAware Approximate
07:38PM 19.6226 -75.4376 143° Southeast  Level FlightAware Approximate
07:39PM 19.5264 -75.3610 143° Southeast  Level FlightAware Approximate
07:40PM 19.4303 -75.2844 143° Southeast  Level FlightAware Approximate
07:41PM 19.3341 -75.2080 143° Southeast  Level FlightAware Approximate
07:42PM 19.2379 -75.1317 143° Southeast  Level FlightAware Approximate
07:43PM 19.1416 -75.0555 143° Southeast  Level FlightAware Approximate
07:44PM 19.0453 -74.9793 143° Southeast  Level FlightAware Approximate
07:45PM 18.9490 -74.9033 143° Southeast  Level FlightAware Approximate
07:46PM 18.8527 -74.8273 143° Southeast  Level FlightAware Approximate
07:47PM 18.7563 -74.7514 143° Southeast  Level FlightAware Approximate
07:48PM 18.6598 -74.6758 143° Southeast  Level FlightAware Approximate
07:49PM 18.5633 -74.6002 143° Southeast  Level FlightAware Approximate
07:50PM 18.4667 -74.5247 143° Southeast  Level FlightAware Approximate
07:51PM 18.3701 -74.4494 143° Southeast  Level FlightAware Approximate
07:52PM 18.2735 -74.3741 144° Southeast  Level FlightAware Approximate
07:53PM 18.1768 -74.2989 144° Southeast  Level FlightAware Approximate
07:54PM 18.0801 -74.2238 144° Southeast  Level FlightAware Approximate
07:55PM 17.9834 -74.1487 144° Southeast  Level FlightAware Approximate
07:56PM 17.8866 -74.0738 144° Southeast  Level FlightAware Approximate
07:57PM 17.7898 -73.9989 144° Southeast  Level FlightAware Approximate
07:58PM 17.6930 -73.9241 144° Southeast  Level FlightAware Approximate
07:59PM 17.5973 -73.8478 143° Southeast  Level FlightAware Approximate
08:00PM 17.5017 -73.7713 143° Southeast  Level FlightAware Approximate
08:01PM 17.4061 -73.6949 143° Southeast  Level FlightAware Approximate
08:02PM 17.3105 -73.6187 143° Southeast  Level FlightAware Approximate
08:03PM 17.2148 -73.5424 143° Southeast  Level FlightAware Approximate
08:04PM 17.1191 -73.4663 143° Southeast  Level FlightAware Approximate
08:05PM 17.0234 -73.3903 143° Southeast  Level FlightAware Approximate
08:06PM 16.9276 -73.3143 143° Southeast  Level FlightAware Approximate
08:07PM 16.8319 -73.2384 143° Southeast  Level FlightAware Approximate
08:08PM 16.7354 -73.1635 144° Southeast  Level FlightAware Approximate
08:09PM 16.6383 -73.0896 144° Southeast  Level FlightAware Approximate
08:10PM 16.5411 -73.0158 144° Southeast  Level FlightAware Approximate
08:11PM 16.4439 -72.9420 144° Southeast  Level FlightAware Approximate
08:12PM 16.3467 -72.8683 144° Southeast  Level FlightAware Approximate
08:13PM 16.2495 -72.7947 144° Southeast  Level FlightAware Approximate
08:14PM 16.1522 -72.7212 144° Southeast  Level FlightAware Approximate
08:15PM 16.0549 -72.6477 144° Southeast  Level FlightAware Approximate
08:16PM 15.9576 -72.5743 144° Southeast  Level FlightAware Approximate
08:17PM 15.8602 -72.5010 144° Southeast  Level FlightAware Approximate
08:18PM 15.7629 -72.4278 144° Southeast  Level FlightAware Approximate
08:19PM 15.6655 -72.3546 144° Southeast  Level FlightAware Approximate
08:20PM 15.5681 -72.2815 144° Southeast  Level FlightAware Approximate
08:21PM 15.4706 -72.2085 144° Southeast  Level FlightAware Approximate
08:22PM 15.3731 -72.1355 144° Southeast  Level FlightAware Approximate
08:23PM 15.2757 -72.0626 144° Southeast  Level FlightAware Approximate
08:24PM 15.1781 -71.9898 144° Southeast  Level FlightAware Approximate
08:25PM 15.0806 -71.9170 144° Southeast  Level FlightAware Approximate
08:26PM 14.9830 -71.8443 144° Southeast  Level FlightAware Approximate
08:27PM 14.8855 -71.7716 144° Southeast  Level FlightAware Approximate
08:28PM 14.7879 -71.6991 144° Southeast  Level FlightAware Approximate
08:29PM 14.6915 -71.6248 143° Southeast  Level FlightAware Approximate
08:30PM 14.5954 -71.5500 143° Southeast  Level FlightAware Approximate
08:31PM 14.4994 -71.4754 143° Southeast  Level FlightAware Approximate
08:32PM 14.4019 -71.4028 145° Southeast  Level FlightAware Approximate
08:33PM 14.3037 -71.3313 145° Southeast  Level FlightAware Approximate
08:34PM 14.2054 -71.2599 145° Southeast  Level FlightAware Approximate
08:35PM 14.1071 -71.1885 145° Southeast  Level FlightAware Approximate
08:36PM 14.0046 -71.1254 140° Southeast  Level FlightAware Approximate
08:37PM 13.9117 -71.0469 149° Southeast  Level FlightAware Approximate
08:38PM 13.8089 -70.9827 149° Southeast  Level FlightAware Approximate
08:39PM 13.7116 -70.9102 143° Southeast  Level FlightAware Approximate
08:40PM 13.6161 -70.8352 143° Southeast  Level FlightAware Approximate
08:41PM 13.5200 -70.7608 144° Southeast  Level FlightAware Approximate
08:42PM 13.4230 -70.6879 144° Southeast  Level FlightAware Approximate
08:43PM 13.3259 -70.6151 144° Southeast  Level FlightAware Approximate
08:44PM 13.2288 -70.5423 144° Southeast  Level FlightAware Approximate
08:45PM 13.1309 -70.4706 147° Southeast  Level FlightAware Approximate
08:46PM 13.0301 -70.4034 147° Southeast  Level FlightAware Approximate
08:47PM 12.9335 -70.3301 142° Southeast  Level FlightAware Approximate
08:48PM 12.8388 -70.2543 142° Southeast  Level FlightAware Approximate
08:49PM 12.7419 -70.1814 144° Southeast  Level FlightAware Approximate
08:50PM 12.6438 -70.1105 136° Southeast  Level FlightAware Approximate
08:51PM 12.5460 -70.0397 154° Southeast  Level FlightAware Approximate
08:52PM 12.5000 -70.0167 154° Southeast  Level FlightAware Approximate
08:53PM 12.5014 -70.0152 154° Southeast  Level Estimated
08:54PM 12.5000 -70.0167 154° Southeast  Level FlightAware Approximate